sensor_id;sensor_type;location;lat;lon;timestamp;pressure;altitude;pressure_sealevel;temperature;humidity
26531;BME280;14201;43.188;24.160;2023-04-06T00:00:32;99449.66;;;4.52;79.74
26531;BME280;14201;43.188;24.160;2023-04-06T00:02:58;99446.59;;;4.44;79.04
26531;BME280;14201;43.188;24.160;2023-04-06T00:05:24;99433.72;;;4.18;78.71
26531;BME280;14201;43.188;24.160;2023-04-06T00:07:49;99448.84;;;4.40;79.42
26531;BME280;14201;43.188;24.160;2023-04-06T00:10:16;99438.16;;;4.33;79.25
26531;BME280;14201;43.188;24.160;2023-04-06T00:12:43;99443.09;;;4.44;79.55
26531;BME280;14201;43.188;24.160;2023-04-06T00:15:09;99445.88;;;4.47;80.20
26531;BME280;14201;43.188;24.160;2023-04-06T00:17:35;99438.97;;;4.32;79.44
26531;BME280;14201;43.188;24.160;2023-04-06T00:20:01;99437.56;;;4.38;79.54
26531;BME280;14201;43.188;24.160;2023-04-06T00:22:26;99438.22;;;4.62;78.74
26531;BME280;14201;43.188;24.160;2023-04-06T00:24:52;99427.34;;;4.39;78.58
26531;BME280;14201;43.188;24.160;2023-04-06T00:27:17;99433.38;;;4.40;78.54
26531;BME280;14201;43.188;24.160;2023-04-06T00:29:43;99429.81;;;4.24;78.19
26531;BME280;14201;43.188;24.160;2023-04-06T00:32:09;99427.25;;;4.11;78.88
26531;BME280;14201;43.188;24.160;2023-04-06T00:34:35;99434.00;;;4.09;79.02
26531;BME280;14201;43.188;24.160;2023-04-06T00:37:01;99427.47;;;4.14;77.06
26531;BME280;14201;43.188;24.160;2023-04-06T00:39:26;99420.63;;;4.14;77.53
26531;BME280;14201;43.188;24.160;2023-04-06T00:41:52;99423.69;;;4.09;77.08
26531;BME280;14201;43.188;24.160;2023-04-06T00:44:19;99426.47;;;4.12;76.46
26531;BME280;14201;43.188;24.160;2023-04-06T00:46:45;99429.66;;;4.08;76.74
26531;BME280;14201;43.188;24.160;2023-04-06T00:49:11;99405.47;;;4.06;77.50
26531;BME280;14201;43.188;24.160;2023-04-06T00:51:36;99431.63;;;4.12;76.98
26531;BME280;14201;43.188;24.160;2023-04-06T00:54:02;99422.03;;;4.09;76.87
26531;BME280;14201;43.188;24.160;2023-04-06T00:56:28;99406.47;;;4.08;76.63
26531;BME280;14201;43.188;24.160;2023-04-06T00:58:53;99410.25;;;4.13;77.38
26531;BME280;14201;43.188;24.160;2023-04-06T01:01:19;99399.34;;;4.04;75.71
26531;BME280;14201;43.188;24.160;2023-04-06T01:03:45;99409.91;;;4.22;75.95
26531;BME280;14201;43.188;24.160;2023-04-06T01:06:14;99412.88;;;4.14;76.36
26531;BME280;14201;43.188;24.160;2023-04-06T01:08:40;99406.66;;;4.11;75.71
26531;BME280;14201;43.188;24.160;2023-04-06T01:11:05;99397.84;;;4.07;74.98
26531;BME280;14201;43.188;24.160;2023-04-06T01:13:31;99400.72;;;4.12;75.91
26531;BME280;14201;43.188;24.160;2023-04-06T01:15:57;99404.47;;;4.17;74.78
26531;BME280;14201;43.188;24.160;2023-04-06T01:18:27;99403.41;;;4.13;76.12
26531;BME280;14201;43.188;24.160;2023-04-06T01:20:53;99392.28;;;4.14;74.17
26531;BME280;14201;43.188;24.160;2023-04-06T01:23:19;99389.56;;;4.26;74.36
26531;BME280;14201;43.188;24.160;2023-04-06T01:25:44;99392.84;;;4.24;74.92
26531;BME280;14201;43.188;24.160;2023-04-06T01:28:10;99389.47;;;4.38;73.65
26531;BME280;14201;43.188;24.160;2023-04-06T01:30:36;99384.41;;;4.40;74.21
26531;BME280;14201;43.188;24.160;2023-04-06T01:33:02;99386.69;;;4.63;73.17
26531;BME280;14201;43.188;24.160;2023-04-06T01:35:28;99390.66;;;4.71;72.43
26531;BME280;14201;43.188;24.160;2023-04-06T01:37:54;99382.59;;;4.80;72.41
26531;BME280;14201;43.188;24.160;2023-04-06T01:40:20;99379.31;;;4.83;71.43
26531;BME280;14201;43.188;24.160;2023-04-06T01:42:46;99383.25;;;4.91;71.47
26531;BME280;14201;43.188;24.160;2023-04-06T01:45:11;99385.63;;;4.88;72.06
26531;BME280;14201;43.188;24.160;2023-04-06T01:47:37;99386.81;;;4.93;72.21
26531;BME280;14201;43.188;24.160;2023-04-06T01:50:03;99388.34;;;5.04;70.64
26531;BME280;14201;43.188;24.160;2023-04-06T01:52:32;99357.50;;;4.78;70.82
26531;BME280;14201;43.188;24.160;2023-04-06T01:54:58;99382.53;;;4.93;71.58
26531;BME280;14201;43.188;24.160;2023-04-06T01:57:23;99375.25;;;5.01;71.20
26531;BME280;14201;43.188;24.160;2023-04-06T01:59:50;99374.25;;;4.99;70.71
26531;BME280;14201;43.188;24.160;2023-04-06T02:02:16;99374.97;;;4.97;71.43
26531;BME280;14201;43.188;24.160;2023-04-06T02:04:42;99368.31;;;5.00;70.69
26531;BME280;14201;43.188;24.160;2023-04-06T02:07:08;99368.22;;;4.99;71.89
26531;BME280;14201;43.188;24.160;2023-04-06T02:09:34;99366.03;;;5.20;70.68
26531;BME280;14201;43.188;24.160;2023-04-06T02:12:00;99360.84;;;5.05;71.50
26531;BME280;14201;43.188;24.160;2023-04-06T02:14:26;99358.53;;;5.09;71.58
26531;BME280;14201;43.188;24.160;2023-04-06T02:16:52;99362.00;;;5.25;71.32
26531;BME280;14201;43.188;24.160;2023-04-06T02:19:18;99367.63;;;5.18;70.62
26531;BME280;14201;43.188;24.160;2023-04-06T02:21:44;99355.69;;;5.20;70.03
26531;BME280;14201;43.188;24.160;2023-04-06T02:24:09;99354.88;;;5.21;69.37
26531;BME280;14201;43.188;24.160;2023-04-06T02:26:35;99358.72;;;5.12;69.76
26531;BME280;14201;43.188;24.160;2023-04-06T02:29:01;99353.56;;;5.12;70.24
26531;BME280;14201;43.188;24.160;2023-04-06T02:31:27;99368.69;;;5.06;70.16
26531;BME280;14201;43.188;24.160;2023-04-06T02:33:53;99364.66;;;5.11;70.59
26531;BME280;14201;43.188;24.160;2023-04-06T02:36:19;99362.69;;;4.92;70.87
26531;BME280;14201;43.188;24.160;2023-04-06T02:38:45;99352.63;;;4.97;71.04
26531;BME280;14201;43.188;24.160;2023-04-06T02:41:13;99365.38;;;5.09;70.59
26531;BME280;14201;43.188;24.160;2023-04-06T02:43:39;99341.44;;;4.97;70.42
26531;BME280;14201;43.188;24.160;2023-04-06T02:46:05;99359.50;;;4.97;71.54
26531;BME280;14201;43.188;24.160;2023-04-06T02:48:30;99361.56;;;5.02;71.02
26531;BME280;14201;43.188;24.160;2023-04-06T02:50:56;99358.16;;;5.03;70.11
26531;BME280;14201;43.188;24.160;2023-04-06T02:53:21;99366.56;;;5.14;70.41
26531;BME280;14201;43.188;24.160;2023-04-06T02:55:47;99356.03;;;5.11;70.13
26531;BME280;14201;43.188;24.160;2023-04-06T02:58:13;99353.00;;;5.03;70.79
26531;BME280;14201;43.188;24.160;2023-04-06T03:00:38;99370.38;;;5.21;69.84
26531;BME280;14201;43.188;24.160;2023-04-06T03:03:04;99366.81;;;5.19;70.51
26531;BME280;14201;43.188;24.160;2023-04-06T03:05:29;99372.97;;;5.21;68.86
26531;BME280;14201;43.188;24.160;2023-04-06T03:07:56;99366.03;;;5.20;69.46
26531;BME280;14201;43.188;24.160;2023-04-06T03:10:21;99374.38;;;5.30;68.85
26531;BME280;14201;43.188;24.160;2023-04-06T03:12:47;99370.03;;;5.29;69.94
26531;BME280;14201;43.188;24.160;2023-04-06T03:15:12;99365.72;;;5.15;70.03
26531;BME280;14201;43.188;24.160;2023-04-06T03:17:38;99367.97;;;5.09;69.96
26531;BME280;14201;43.188;24.160;2023-04-06T03:20:04;99371.72;;;4.43;71.69
26531;BME280;14201;43.188;24.160;2023-04-06T03:22:30;99373.16;;;4.52;72.37
26531;BME280;14201;43.188;24.160;2023-04-06T03:24:56;99371.72;;;4.43;71.60
26531;BME280;14201;43.188;24.160;2023-04-06T03:27:21;99380.44;;;4.31;71.64
26531;BME280;14201;43.188;24.160;2023-04-06T03:29:47;99392.06;;;4.66;73.28
26531;BME280;14201;43.188;24.160;2023-04-06T03:32:12;99387.00;;;4.68;72.55
26531;BME280;14201;43.188;24.160;2023-04-06T03:34:38;99389.38;;;4.65;73.07
26531;BME280;14201;43.188;24.160;2023-04-06T03:37:04;99381.91;;;4.41;72.69
26531;BME280;14201;43.188;24.160;2023-04-06T03:39:30;99380.28;;;4.57;72.93
26531;BME280;14201;43.188;24.160;2023-04-06T03:41:56;99379.44;;;4.43;74.36
26531;BME280;14201;43.188;24.160;2023-04-06T03:44:21;99375.69;;;4.38;74.19
26531;BME280;14201;43.188;24.160;2023-04-06T03:46:47;99377.50;;;4.25;74.32
26531;BME280;14201;43.188;24.160;2023-04-06T03:49:13;99363.41;;;4.33;74.73
26531;BME280;14201;43.188;24.160;2023-04-06T03:51:38;99350.25;;;4.16;74.37
26531;BME280;14201;43.188;24.160;2023-04-06T03:54:04;99368.94;;;4.26;73.69
26531;BME280;14201;43.188;24.160;2023-04-06T03:56:30;99380.84;;;4.24;74.28
26531;BME280;14201;43.188;24.160;2023-04-06T03:58:55;99371.75;;;4.16;74.96
26531;BME280;14201;43.188;24.160;2023-04-06T04:01:21;99380.84;;;4.24;75.76
26531;BME280;14201;43.188;24.160;2023-04-06T04:03:47;99382.28;;;4.19;74.94
26531;BME280;14201;43.188;24.160;2023-04-06T04:06:12;99368.41;;;4.17;75.88
26531;BME280;14201;43.188;24.160;2023-04-06T04:08:38;99368.84;;;4.38;75.76
26531;BME280;14201;43.188;24.160;2023-04-06T04:11:04;99358.75;;;4.28;75.97
26531;BME280;14201;43.188;24.160;2023-04-06T04:13:29;99377.63;;;4.13;76.21
26531;BME280;14201;43.188;24.160;2023-04-06T04:15:55;99377.59;;;4.27;76.07
26531;BME280;14201;43.188;24.160;2023-04-06T04:18:21;99379.19;;;4.53;75.33
26531;BME280;14201;43.188;24.160;2023-04-06T04:20:47;99372.66;;;4.58;75.30
26531;BME280;14201;43.188;24.160;2023-04-06T04:23:12;99369.31;;;4.74;75.05
26531;BME280;14201;43.188;24.160;2023-04-06T04:25:38;99368.59;;;4.62;74.57
26531;BME280;14201;43.188;24.160;2023-04-06T04:28:03;99379.03;;;4.50;75.93
26531;BME280;14201;43.188;24.160;2023-04-06T04:30:29;99377.56;;;4.40;75.26
26531;BME280;14201;43.188;24.160;2023-04-06T04:32:55;99373.53;;;4.30;75.69
26531;BME280;14201;43.188;24.160;2023-04-06T04:35:21;99382.09;;;4.58;75.90
26531;BME280;14201;43.188;24.160;2023-04-06T04:37:46;99359.28;;;4.50;77.12
26531;BME280;14201;43.188;24.160;2023-04-06T04:40:12;99375.06;;;4.42;75.98
26531;BME280;14201;43.188;24.160;2023-04-06T04:42:38;99378.97;;;4.63;76.40
26531;BME280;14201;43.188;24.160;2023-04-06T04:45:04;99366.59;;;4.86;75.53
26531;BME280;14201;43.188;24.160;2023-04-06T04:47:29;99372.03;;;5.05;74.81
26531;BME280;14201;43.188;24.160;2023-04-06T04:49:55;99372.72;;;4.88;76.14
26531;BME280;14201;43.188;24.160;2023-04-06T04:52:21;99374.69;;;4.92;76.17
26531;BME280;14201;43.188;24.160;2023-04-06T04:54:46;99375.91;;;4.84;75.67
26531;BME280;14201;43.188;24.160;2023-04-06T04:57:12;99371.38;;;4.80;75.25
26531;BME280;14201;43.188;24.160;2023-04-06T04:59:38;99365.25;;;4.78;76.00
26531;BME280;14201;43.188;24.160;2023-04-06T05:02:03;99358.00;;;5.00;75.17
26531;BME280;14201;43.188;24.160;2023-04-06T05:04:29;99369.00;;;4.98;74.44
26531;BME280;14201;43.188;24.160;2023-04-06T05:07:05;99367.75;;;5.06;75.33
26531;BME280;14201;43.188;24.160;2023-04-06T05:09:31;99365.28;;;5.07;73.51
26531;BME280;14201;43.188;24.160;2023-04-06T05:11:58;99373.22;;;5.10;75.05
26531;BME280;14201;43.188;24.160;2023-04-06T05:14:24;99361.91;;;5.23;73.81
26531;BME280;14201;43.188;24.160;2023-04-06T05:16:50;99357.03;;;5.28;73.92
26531;BME280;14201;43.188;24.160;2023-04-06T05:19:15;99367.63;;;5.32;73.51
26531;BME280;14201;43.188;24.160;2023-04-06T05:21:41;99368.34;;;5.30;73.18
26531;BME280;14201;43.188;24.160;2023-04-06T05:24:07;99357.91;;;5.28;73.37
26531;BME280;14201;43.188;24.160;2023-04-06T05:26:34;99363.97;;;5.29;72.96
26531;BME280;14201;43.188;24.160;2023-04-06T05:29:00;99354.81;;;5.34;74.07
26531;BME280;14201;43.188;24.160;2023-04-06T05:31:26;99358.16;;;5.33;72.37
26531;BME280;14201;43.188;24.160;2023-04-06T05:33:52;99349.25;;;5.43;73.11
26531;BME280;14201;43.188;24.160;2023-04-06T05:36:17;99370.22;;;5.47;72.86
26531;BME280;14201;43.188;24.160;2023-04-06T05:38:43;99349.34;;;5.59;71.31
26531;BME280;14201;43.188;24.160;2023-04-06T05:41:09;99355.84;;;5.67;71.52
26531;BME280;14201;43.188;24.160;2023-04-06T05:43:34;99348.91;;;5.66;71.06
26531;BME280;14201;43.188;24.160;2023-04-06T05:46:00;99358.88;;;5.75;72.33
26531;BME280;14201;43.188;24.160;2023-04-06T05:48:26;99349.38;;;5.90;71.42
26531;BME280;14201;43.188;24.160;2023-04-06T05:50:51;99346.00;;;5.91;71.75
26531;BME280;14201;43.188;24.160;2023-04-06T05:53:17;99344.94;;;6.03;69.87
26531;BME280;14201;43.188;24.160;2023-04-06T05:55:42;99344.66;;;6.13;72.07
26531;BME280;14201;43.188;24.160;2023-04-06T05:58:09;99341.84;;;6.25;69.86
26531;BME280;14201;43.188;24.160;2023-04-06T06:00:34;99351.03;;;6.20;69.63
26531;BME280;14201;43.188;24.160;2023-04-06T06:03:00;99344.66;;;6.29;67.15
26531;BME280;14201;43.188;24.160;2023-04-06T06:05:29;99338.88;;;6.50;69.19
26531;BME280;14201;43.188;24.160;2023-04-06T06:07:55;99315.19;;;6.42;68.66
26531;BME280;14201;43.188;24.160;2023-04-06T06:10:20;99341.69;;;6.55;65.03
26531;BME280;14201;43.188;24.160;2023-04-06T06:12:46;99340.63;;;6.51;65.77
26531;BME280;14201;43.188;24.160;2023-04-06T06:15:12;99324.16;;;6.49;66.39
26531;BME280;14201;43.188;24.160;2023-04-06T06:17:37;99336.44;;;6.69;67.05
26531;BME280;14201;43.188;24.160;2023-04-06T06:20:06;99339.44;;;6.77;67.49
26531;BME280;14201;43.188;24.160;2023-04-06T06:22:32;99337.09;;;6.82;65.87
26531;BME280;14201;43.188;24.160;2023-04-06T06:24:58;99336.13;;;6.96;65.74
26531;BME280;14201;43.188;24.160;2023-04-06T06:27:24;99342.59;;;7.22;64.65
26531;BME280;14201;43.188;24.160;2023-04-06T06:29:49;99333.28;;;7.26;65.17
26531;BME280;14201;43.188;24.160;2023-04-06T06:32:15;99335.00;;;7.25;65.29
26531;BME280;14201;43.188;24.160;2023-04-06T06:34:40;99337.22;;;7.18;63.77
26531;BME280;14201;43.188;24.160;2023-04-06T06:37:06;99329.56;;;7.21;63.83
26531;BME280;14201;43.188;24.160;2023-04-06T06:39:32;99344.06;;;7.52;64.34
26531;BME280;14201;43.188;24.160;2023-04-06T06:41:57;99311.78;;;7.27;61.95
26531;BME280;14201;43.188;24.160;2023-04-06T06:44:26;99326.75;;;7.51;62.36
26531;BME280;14201;43.188;24.160;2023-04-06T06:46:51;99335.28;;;7.84;63.05
26531;BME280;14201;43.188;24.160;2023-04-06T06:49:17;99335.66;;;7.74;62.91
26531;BME280;14201;43.188;24.160;2023-04-06T06:51:43;99331.56;;;7.43;61.33
26531;BME280;14201;43.188;24.160;2023-04-06T06:54:09;99333.94;;;7.56;62.07
26531;BME280;14201;43.188;24.160;2023-04-06T06:56:35;99331.34;;;7.74;61.73
26531;BME280;14201;43.188;24.160;2023-04-06T06:59:04;99330.28;;;7.88;61.84
26531;BME280;14201;43.188;24.160;2023-04-06T07:01:31;99335.41;;;8.05;63.54
26531;BME280;14201;43.188;24.160;2023-04-06T07:03:57;99322.91;;;8.34;62.43
26531;BME280;14201;43.188;24.160;2023-04-06T07:06:23;99322.97;;;8.35;61.86
26531;BME280;14201;43.188;24.160;2023-04-06T07:08:49;99317.47;;;8.09;61.58
26531;BME280;14201;43.188;24.160;2023-04-06T07:11:14;99321.81;;;8.28;60.23
26531;BME280;14201;43.188;24.160;2023-04-06T07:13:40;99324.41;;;8.28;59.04
26531;BME280;14201;43.188;24.160;2023-04-06T07:16:06;99323.63;;;8.49;58.92
26531;BME280;14201;43.188;24.160;2023-04-06T07:18:31;99319.34;;;8.69;60.97
26531;BME280;14201;43.188;24.160;2023-04-06T07:20:57;99324.31;;;9.03;59.38
26531;BME280;14201;43.188;24.160;2023-04-06T07:23:22;99329.38;;;8.42;57.46
26531;BME280;14201;43.188;24.160;2023-04-06T07:25:48;99308.34;;;8.75;58.04
26531;BME280;14201;43.188;24.160;2023-04-06T07:28:16;99326.06;;;9.04;57.89
26531;BME280;14201;43.188;24.160;2023-04-06T07:30:42;99322.91;;;9.12;52.00
26531;BME280;14201;43.188;24.160;2023-04-06T07:33:07;99325.41;;;9.30;54.28
26531;BME280;14201;43.188;24.160;2023-04-06T07:35:33;99309.09;;;9.55;55.07
26531;BME280;14201;43.188;24.160;2023-04-06T07:38:00;99321.47;;;10.04;54.32
26531;BME280;14201;43.188;24.160;2023-04-06T07:40:25;99315.81;;;10.37;52.29
26531;BME280;14201;43.188;24.160;2023-04-06T07:42:52;99323.00;;;10.91;52.00
26531;BME280;14201;43.188;24.160;2023-04-06T07:45:18;99311.25;;;11.28;52.15
26531;BME280;14201;43.188;24.160;2023-04-06T07:47:44;99310.75;;;11.65;49.51
26531;BME280;14201;43.188;24.160;2023-04-06T07:50:11;99306.78;;;11.51;50.10
26531;BME280;14201;43.188;24.160;2023-04-06T07:52:37;99312.53;;;11.93;47.65
26531;BME280;14201;43.188;24.160;2023-04-06T07:55:02;99303.88;;;12.23;51.13
26531;BME280;14201;43.188;24.160;2023-04-06T07:57:28;99306.59;;;12.26;49.43
26531;BME280;14201;43.188;24.160;2023-04-06T07:59:53;99305.38;;;12.15;47.65
26531;BME280;14201;43.188;24.160;2023-04-06T08:02:18;99300.50;;;12.26;47.76
26531;BME280;14201;43.188;24.160;2023-04-06T08:04:44;99298.06;;;12.32;45.32
26531;BME280;14201;43.188;24.160;2023-04-06T08:07:09;99302.41;;;12.31;46.85
26531;BME280;14201;43.188;24.160;2023-04-06T08:09:35;99292.03;;;12.65;46.83
26531;BME280;14201;43.188;24.160;2023-04-06T08:12:00;99290.69;;;12.79;47.42
26531;BME280;14201;43.188;24.160;2023-04-06T08:14:26;99280.06;;;12.43;46.31
26531;BME280;14201;43.188;24.160;2023-04-06T08:16:52;99291.09;;;12.63;48.03
26531;BME280;14201;43.188;24.160;2023-04-06T08:19:17;99282.78;;;13.09;45.82
26531;BME280;14201;43.188;24.160;2023-04-06T08:21:44;99274.63;;;12.97;43.67
26531;BME280;14201;43.188;24.160;2023-04-06T08:24:11;99287.41;;;12.54;46.46
26531;BME280;14201;43.188;24.160;2023-04-06T08:26:37;99278.63;;;12.52;45.91
26531;BME280;14201;43.188;24.160;2023-04-06T08:29:03;99282.41;;;12.64;44.76
26531;BME280;14201;43.188;24.160;2023-04-06T08:31:29;99271.97;;;12.64;43.02
26531;BME280;14201;43.188;24.160;2023-04-06T08:33:55;99258.47;;;12.48;45.52
26531;BME280;14201;43.188;24.160;2023-04-06T08:36:21;99275.91;;;12.81;47.35
26531;BME280;14201;43.188;24.160;2023-04-06T08:38:48;99270.78;;;13.51;46.02
26531;BME280;14201;43.188;24.160;2023-04-06T08:41:15;99278.03;;;13.28;43.86
26531;BME280;14201;43.188;24.160;2023-04-06T08:43:46;99264.06;;;13.27;44.63
26531;BME280;14201;43.188;24.160;2023-04-06T08:46:12;99274.22;;;12.83;46.10
26531;BME280;14201;43.188;24.160;2023-04-06T08:48:41;99269.59;;;13.05;45.21
26531;BME280;14201;43.188;24.160;2023-04-06T08:51:07;99271.31;;;13.37;45.30
26531;BME280;14201;43.188;24.160;2023-04-06T08:53:33;99268.09;;;13.48;42.01
26531;BME280;14201;43.188;24.160;2023-04-06T08:55:58;99271.94;;;13.62;43.44
26531;BME280;14201;43.188;24.160;2023-04-06T08:58:25;99271.47;;;13.42;43.04
26531;BME280;14201;43.188;24.160;2023-04-06T09:00:52;99262.97;;;13.89;41.71
26531;BME280;14201;43.188;24.160;2023-04-06T09:03:18;99267.31;;;12.85;42.04
26531;BME280;14201;43.188;24.160;2023-04-06T09:05:45;99250.06;;;12.28;44.64
26531;BME280;14201;43.188;24.160;2023-04-06T09:08:11;99258.56;;;12.83;44.41
26531;BME280;14201;43.188;24.160;2023-04-06T09:10:40;99254.50;;;12.94;45.08
26531;BME280;14201;43.188;24.160;2023-04-06T09:13:05;99256.94;;;11.96;47.59
26531;BME280;14201;43.188;24.160;2023-04-06T09:15:31;99247.63;;;12.65;46.21
26531;BME280;14201;43.188;24.160;2023-04-06T09:17:57;99252.50;;;12.84;43.55
26531;BME280;14201;43.188;24.160;2023-04-06T09:20:24;99251.63;;;12.85;45.66
26531;BME280;14201;43.188;24.160;2023-04-06T09:22:51;99250.59;;;13.12;42.76
26531;BME280;14201;43.188;24.160;2023-04-06T09:25:22;99241.38;;;13.26;43.41
26531;BME280;14201;43.188;24.160;2023-04-06T09:27:48;99256.78;;;13.49;41.72
26531;BME280;14201;43.188;24.160;2023-04-06T09:30:14;99261.50;;;13.64;40.95
26531;BME280;14201;43.188;24.160;2023-04-06T09:35:11;99256.91;;;13.20;38.57
26531;BME280;14201;43.188;24.160;2023-04-06T09:37:36;99254.75;;;13.37;41.70
26531;BME280;14201;43.188;24.160;2023-04-06T09:40:02;99249.34;;;14.05;40.36
26531;BME280;14201;43.188;24.160;2023-04-06T09:42:28;99247.97;;;14.62;40.38
26531;BME280;14201;43.188;24.160;2023-04-06T09:44:54;99241.72;;;14.57;37.52
26531;BME280;14201;43.188;24.160;2023-04-06T09:47:20;99227.09;;;14.68;38.14
26531;BME280;14201;43.188;24.160;2023-04-06T09:49:50;99233.47;;;14.38;37.79
26531;BME280;14201;43.188;24.160;2023-04-06T09:52:20;99242.25;;;14.42;39.44
26531;BME280;14201;43.188;24.160;2023-04-06T09:54:50;99226.94;;;14.61;38.24
26531;BME280;14201;43.188;24.160;2023-04-06T09:59:54;99226.91;;;15.08;39.36
26531;BME280;14201;43.188;24.160;2023-04-06T10:05:52;99229.56;;;15.61;39.61
26531;BME280;14201;43.188;24.160;2023-04-06T10:07:46;99224.25;;;15.58;37.02
26531;BME280;14201;43.188;24.160;2023-04-06T10:10:13;99217.94;;;15.45;37.21
26531;BME280;14201;43.188;24.160;2023-04-06T10:12:39;99222.72;;;15.18;37.55
26531;BME280;14201;43.188;24.160;2023-04-06T10:15:05;99215.94;;;14.80;37.80
26531;BME280;14201;43.188;24.160;2023-04-06T10:17:31;99215.88;;;14.77;38.45
26531;BME280;14201;43.188;24.160;2023-04-06T10:20:01;99225.25;;;14.22;38.83
26531;BME280;14201;43.188;24.160;2023-04-06T10:22:39;99218.75;;;14.45;40.35
26531;BME280;14201;43.188;24.160;2023-04-06T10:25:08;99220.06;;;14.67;38.99
26531;BME280;14201;43.188;24.160;2023-04-06T10:27:33;99221.41;;;14.92;39.89
26531;BME280;14201;43.188;24.160;2023-04-06T10:30:02;99223.72;;;15.24;37.65
26531;BME280;14201;43.188;24.160;2023-04-06T10:32:35;99214.63;;;15.04;38.18
26531;BME280;14201;43.188;24.160;2023-04-06T10:35:19;99214.88;;;15.19;38.27
26531;BME280;14201;43.188;24.160;2023-04-06T10:37:52;99209.28;;;15.51;36.49
26531;BME280;14201;43.188;24.160;2023-04-06T10:40:22;99200.22;;;15.32;36.80
26531;BME280;14201;43.188;24.160;2023-04-06T10:42:48;99204.97;;;14.11;37.27
26531;BME280;14201;43.188;24.160;2023-04-06T10:45:20;99205.31;;;14.28;38.55
26531;BME280;14201;43.188;24.160;2023-04-06T10:47:46;99204.94;;;14.52;39.23
26531;BME280;14201;43.188;24.160;2023-04-06T10:50:12;99206.97;;;14.66;38.63
26531;BME280;14201;43.188;24.160;2023-04-06T10:52:39;99209.25;;;14.52;36.07
26531;BME280;14201;43.188;24.160;2023-04-06T10:55:05;99203.03;;;14.45;39.35
26531;BME280;14201;43.188;24.160;2023-04-06T10:57:31;99201.00;;;14.74;39.24
26531;BME280;14201;43.188;24.160;2023-04-06T10:59:57;99198.06;;;15.06;39.72
26531;BME280;14201;43.188;24.160;2023-04-06T11:02:23;99190.03;;;15.52;38.82
26531;BME280;14201;43.188;24.160;2023-04-06T11:04:57;99193.22;;;15.89;38.38
26531;BME280;14201;43.188;24.160;2023-04-06T11:07:26;99186.03;;;15.75;37.09
26531;BME280;14201;43.188;24.160;2023-04-06T11:09:53;99178.28;;;15.85;35.63
26531;BME280;14201;43.188;24.160;2023-04-06T11:12:22;99185.56;;;15.46;36.09
26531;BME280;14201;43.188;24.160;2023-04-06T11:14:55;99184.59;;;15.40;37.22
26531;BME280;14201;43.188;24.160;2023-04-06T11:17:27;99173.94;;;15.29;38.19
26531;BME280;14201;43.188;24.160;2023-04-06T11:19:53;99182.81;;;15.35;38.30
26531;BME280;14201;43.188;24.160;2023-04-06T11:22:19;99177.59;;;15.40;39.00
26531;BME280;14201;43.188;24.160;2023-04-06T11:24:44;99175.34;;;15.66;38.86
26531;BME280;14201;43.188;24.160;2023-04-06T11:27:10;99181.31;;;15.54;38.33
26531;BME280;14201;43.188;24.160;2023-04-06T11:29:35;99179.72;;;15.63;37.82
26531;BME280;14201;43.188;24.160;2023-04-06T11:32:06;99175.03;;;15.42;36.49
26531;BME280;14201;43.188;24.160;2023-04-06T11:34:36;99171.16;;;15.18;36.51
26531;BME280;14201;43.188;24.160;2023-04-06T11:37:02;99171.00;;;15.09;37.42
26531;BME280;14201;43.188;24.160;2023-04-06T11:39:31;99160.44;;;15.06;37.74
26531;BME280;14201;43.188;24.160;2023-04-06T11:41:59;99166.22;;;14.85;37.63
26531;BME280;14201;43.188;24.160;2023-04-06T11:44:35;99163.09;;;14.57;36.73
26531;BME280;14201;43.188;24.160;2023-04-06T11:47:03;99150.72;;;14.51;37.86
26531;BME280;14201;43.188;24.160;2023-04-06T11:49:31;99165.66;;;14.54;38.02
26531;BME280;14201;43.188;24.160;2023-04-06T11:51:58;99173.91;;;14.30;37.80
26531;BME280;14201;43.188;24.160;2023-04-06T11:54:34;99168.03;;;13.99;38.04
26531;BME280;14201;43.188;24.160;2023-04-06T11:57:04;99165.72;;;13.72;38.64
26531;BME280;14201;43.188;24.160;2023-04-06T11:59:33;99147.84;;;13.14;38.80
26531;BME280;14201;43.188;24.160;2023-04-06T12:02:00;99170.53;;;13.52;40.14
26531;BME280;14201;43.188;24.160;2023-04-06T12:04:26;99172.41;;;13.57;38.82
26531;BME280;14201;43.188;24.160;2023-04-06T12:06:52;99153.81;;;13.47;39.90
26531;BME280;14201;43.188;24.160;2023-04-06T12:09:18;99168.13;;;13.61;40.33
26531;BME280;14201;43.188;24.160;2023-04-06T12:11:43;99163.97;;;13.72;39.49
26531;BME280;14201;43.188;24.160;2023-04-06T12:14:09;99154.16;;;13.62;39.52
26531;BME280;14201;43.188;24.160;2023-04-06T12:16:35;99164.63;;;13.62;39.62
26531;BME280;14201;43.188;24.160;2023-04-06T12:19:01;99165.28;;;13.52;39.70
26531;BME280;14201;43.188;24.160;2023-04-06T12:21:27;99151.91;;;13.39;40.33
26531;BME280;14201;43.188;24.160;2023-04-06T12:23:54;99167.47;;;13.33;40.60
26531;BME280;14201;43.188;24.160;2023-04-06T12:26:21;99170.16;;;13.36;40.81
26531;BME280;14201;43.188;24.160;2023-04-06T12:28:47;99169.31;;;13.37;39.85
26531;BME280;14201;43.188;24.160;2023-04-06T12:31:20;99172.66;;;13.30;40.32
26531;BME280;14201;43.188;24.160;2023-04-06T12:33:48;99176.03;;;13.28;40.97
26531;BME280;14201;43.188;24.160;2023-04-06T12:36:14;99171.38;;;13.16;40.26
26531;BME280;14201;43.188;24.160;2023-04-06T12:38:41;99177.16;;;13.03;39.31
26531;BME280;14201;43.188;24.160;2023-04-06T12:41:07;99164.94;;;12.67;40.27
26531;BME280;14201;43.188;24.160;2023-04-06T12:43:33;99171.16;;;12.72;39.83
26531;BME280;14201;43.188;24.160;2023-04-06T12:45:59;99173.75;;;12.70;40.81
26531;BME280;14201;43.188;24.160;2023-04-06T12:48:27;99170.06;;;12.64;41.03
26531;BME280;14201;43.188;24.160;2023-04-06T12:50:58;99169.25;;;12.65;40.50
26531;BME280;14201;43.188;24.160;2023-04-06T12:53:23;99169.06;;;12.58;41.13
26531;BME280;14201;43.188;24.160;2023-04-06T12:55:49;99159.06;;;12.42;40.42
26531;BME280;14201;43.188;24.160;2023-04-06T12:58:15;99162.47;;;12.39;41.26